createdAt,value
2023-10-06T00:00:29.575Z,0.00
2023-10-06T00:01:29.788Z,0.00
2023-10-06T00:02:30.645Z,0.00
2023-10-06T00:03:29.855Z,0.00
2023-10-06T00:04:30.276Z,0.00
2023-10-06T00:05:29.961Z,0.00
2023-10-06T00:06:30.042Z,0.00
2023-10-06T00:07:30.143Z,0.00
2023-10-06T00:08:30.948Z,0.00
2023-10-06T00:09:30.255Z,0.00
2023-10-06T00:10:30.344Z,0.00
2023-10-06T00:11:30.416Z,0.00
2023-10-06T00:12:30.472Z,0.00
2023-10-06T00:13:30.830Z,0.00
2023-10-06T00:14:30.626Z,0.00
2023-10-06T00:15:30.689Z,0.00
2023-10-06T00:16:30.903Z,0.00
2023-10-06T00:17:31.185Z,0.00
2023-10-06T00:18:30.991Z,0.00
2023-10-06T00:19:31.048Z,0.00
2023-10-06T00:20:31.065Z,0.00
2023-10-06T00:21:31.206Z,0.00
2023-10-06T00:22:31.267Z,0.00
2023-10-06T00:23:31.280Z,0.00
2023-10-06T00:24:31.336Z,0.00
2023-10-06T00:25:31.903Z,0.00
2023-10-06T00:26:31.543Z,0.00
2023-10-06T00:27:31.953Z,0.00
2023-10-06T00:28:31.735Z,0.00
2023-10-06T00:29:31.897Z,0.00
2023-10-06T00:30:31.856Z,0.00
2023-10-06T00:31:32.355Z,0.00
2023-10-06T00:32:32.091Z,0.00
2023-10-06T00:33:32.089Z,0.00
2023-10-06T00:34:32.289Z,0.00
2023-10-06T00:35:32.642Z,0.00
2023-10-06T00:36:32.668Z,0.00
2023-10-06T00:37:32.452Z,0.00
2023-10-06T00:38:32.490Z,0.00
2023-10-06T00:39:32.549Z,0.00
2023-10-06T00:40:32.919Z,0.00
2023-10-06T00:41:32.730Z,0.00
2023-10-06T00:42:32.802Z,0.00
2023-10-06T00:43:32.867Z,0.00
2023-10-06T00:44:33.209Z,0.00
2023-10-06T00:45:33.026Z,0.00
2023-10-06T00:46:33.136Z,0.00
2023-10-06T00:47:33.334Z,0.00
2023-10-06T00:48:33.225Z,0.00
2023-10-06T00:49:33.316Z,0.00
2023-10-06T00:50:33.376Z,0.00
2023-10-06T00:51:33.517Z,0.00
2023-10-06T00:52:33.556Z,0.00
2023-10-06T00:53:33.893Z,0.00
2023-10-06T00:54:33.693Z,0.00
2023-10-06T00:55:33.857Z,0.00
2023-10-06T00:56:34.028Z,0.00
2023-10-06T00:57:33.948Z,0.00
2023-10-06T00:58:34.018Z,0.00
2023-10-06T00:59:34.066Z,0.00
2023-10-06T01:00:34.393Z,0.00
2023-10-06T01:01:34.278Z,0.00
2023-10-06T01:02:34.376Z,0.00
2023-10-06T01:03:34.407Z,0.00
2023-10-06T01:04:34.420Z,0.00
2023-10-06T01:05:34.502Z,0.00
2023-10-06T01:08:17.436Z,0.00
2023-10-06T01:09:18.381Z,0.00
2023-10-06T01:10:18.255Z,0.00
2023-10-06T01:11:18.324Z,0.00
2023-10-06T01:12:18.442Z,0.00
2023-10-06T01:13:18.513Z,0.00
2023-10-06T01:14:18.585Z,0.00
2023-10-06T01:15:18.649Z,0.00
2023-10-06T01:16:19.017Z,0.00
2023-10-06T01:17:18.780Z,0.00
2023-10-06T01:18:18.905Z,0.00
2023-10-06T01:19:18.988Z,0.00
2023-10-06T01:20:19.040Z,0.00
2023-10-06T01:21:19.368Z,0.00
2023-10-06T01:22:19.441Z,0.00
2023-10-06T01:23:19.280Z,0.00
2023-10-06T01:24:19.391Z,0.00
2023-10-06T01:25:19.453Z,0.00
2023-10-06T01:26:19.512Z,0.00
2023-10-06T01:27:19.591Z,0.00
2023-10-06T01:28:19.655Z,0.00
2023-10-06T01:29:19.755Z,0.00
2023-10-06T01:30:19.834Z,0.00
2023-10-06T01:31:19.902Z,0.00
2023-10-06T01:32:20.009Z,0.00
2023-10-06T01:33:20.042Z,0.00
2023-10-06T01:34:20.137Z,0.00
2023-10-06T01:35:20.170Z,0.00
2023-10-06T01:36:20.257Z,0.00
2023-10-06T01:37:20.326Z,0.00
2023-10-06T01:38:20.413Z,0.00
2023-10-06T01:39:20.766Z,0.00
2023-10-06T01:40:20.579Z,0.00
2023-10-06T01:41:20.652Z,0.00
2023-10-06T01:42:21.012Z,0.00
2023-10-06T01:43:20.794Z,0.00
2023-10-06T01:44:21.137Z,0.00
2023-10-06T01:45:20.943Z,0.00
2023-10-06T01:46:21.021Z,0.00
2023-10-06T01:47:21.087Z,0.00
2023-10-06T01:48:21.161Z,0.00
2023-10-06T01:49:21.267Z,0.00
2023-10-06T01:50:21.295Z,0.00
2023-10-06T01:51:21.387Z,0.00
2023-10-06T01:52:21.438Z,0.00
2023-10-06T01:53:21.552Z,0.00
2023-10-06T01:54:21.620Z,0.00
2023-10-06T01:55:21.688Z,0.00
2023-10-06T01:56:21.961Z,0.00
2023-10-06T01:57:21.793Z,0.00
2023-10-06T01:58:21.871Z,0.00
2023-10-06T01:59:22.170Z,0.00
2023-10-06T02:00:22.015Z,0.00
2023-10-06T02:01:22.122Z,0.00
2023-10-06T02:02:22.219Z,0.00
2023-10-06T02:03:22.338Z,0.00
2023-10-06T02:04:22.341Z,0.00
2023-10-06T02:05:22.411Z,0.00
2023-10-06T02:06:22.761Z,0.00
2023-10-06T02:07:22.546Z,0.00
2023-10-06T02:08:22.714Z,0.00
2023-10-06T02:09:22.717Z,0.00
2023-10-06T02:10:22.807Z,0.00
2023-10-06T02:11:22.887Z,0.00
2023-10-06T02:12:22.951Z,0.00
2023-10-06T02:13:23.412Z,0.00
2023-10-06T02:14:23.101Z,0.00
2023-10-06T02:15:23.490Z,0.00
2023-10-06T02:16:23.247Z,0.00
2023-10-06T02:17:23.425Z,0.00
2023-10-06T02:18:23.450Z,0.00
2023-10-06T02:19:23.467Z,0.00
2023-10-06T02:20:23.536Z,0.00
2023-10-06T02:21:23.625Z,0.00
2023-10-06T02:22:23.706Z,0.00
2023-10-06T02:23:23.780Z,0.00
2023-10-06T02:24:24.106Z,0.00
2023-10-06T02:25:24.250Z,0.00
2023-10-06T02:26:23.993Z,0.00
2023-10-06T02:27:24.059Z,0.00
2023-10-06T02:28:24.123Z,0.00
2023-10-06T02:29:24.265Z,0.00
2023-10-06T02:30:24.322Z,0.00
2023-10-06T02:31:24.451Z,0.00
2023-10-06T02:32:24.416Z,0.00
2023-10-06T02:33:24.755Z,0.00
2023-10-06T02:34:24.635Z,0.00
2023-10-06T02:35:24.721Z,0.00
2023-10-06T02:36:24.946Z,0.00
2023-10-06T02:37:24.861Z,0.00
2023-10-06T02:38:24.915Z,0.00
2023-10-06T02:39:25.003Z,0.00
2023-10-06T02:40:25.041Z,0.00
2023-10-06T02:41:25.161Z,0.00
2023-10-06T02:42:25.243Z,0.00
2023-10-06T02:43:25.301Z,0.00
2023-10-06T02:44:25.352Z,0.00
2023-10-06T02:45:25.422Z,0.00
2023-10-06T02:46:25.587Z,0.00
2023-10-06T02:47:25.722Z,0.00
2023-10-06T02:48:25.681Z,0.00
2023-10-06T02:49:25.746Z,0.00
2023-10-06T02:50:25.793Z,0.00
2023-10-06T02:51:25.887Z,0.00
2023-10-06T02:52:25.959Z,0.00
2023-10-06T02:53:25.988Z,0.00
2023-10-06T02:54:26.056Z,0.00
2023-10-06T02:55:26.138Z,0.00
2023-10-06T02:56:26.240Z,0.00
2023-10-06T02:57:26.329Z,0.00
2023-10-06T02:58:26.402Z,0.00
2023-10-06T02:59:26.528Z,0.00
2023-10-06T03:00:26.610Z,0.00
2023-10-06T03:01:26.934Z,0.00
2023-10-06T03:02:26.880Z,0.00
2023-10-06T03:03:26.932Z,0.00
2023-10-06T03:04:26.898Z,0.00
2023-10-06T03:05:26.949Z,0.00
2023-10-06T03:06:27.064Z,0.00
2023-10-06T03:07:27.156Z,0.00
2023-10-06T03:08:27.232Z,0.00
2023-10-06T03:09:27.306Z,0.00
2023-10-06T03:10:27.412Z,0.00
2023-10-06T03:11:27.489Z,0.00
2023-10-06T03:12:27.579Z,0.00
2023-10-06T03:13:27.662Z,0.00
2023-10-06T03:14:27.985Z,0.00
2023-10-06T03:15:27.785Z,0.00
2023-10-06T03:16:27.891Z,0.00
2023-10-06T03:17:28.001Z,0.00
2023-10-06T03:18:28.290Z,0.00
2023-10-06T03:19:28.075Z,0.00
2023-10-06T03:20:28.133Z,0.00
2023-10-06T03:21:28.236Z,0.00
2023-10-06T03:22:28.306Z,0.00
2023-10-06T03:23:28.410Z,0.00
2023-10-06T03:24:28.478Z,0.00
2023-10-06T03:25:28.546Z,0.00
2023-10-06T03:26:28.639Z,0.00
2023-10-06T03:27:28.673Z,0.00
2023-10-06T03:28:28.781Z,0.00
2023-10-06T03:29:28.877Z,0.00
2023-10-06T03:30:28.964Z,0.00
2023-10-06T03:31:28.980Z,0.00
2023-10-06T03:32:29.058Z,0.00
2023-10-06T03:33:29.116Z,0.00
2023-10-06T03:34:29.249Z,0.00
2023-10-06T03:35:29.521Z,0.00
2023-10-06T03:36:29.373Z,0.00
2023-10-06T03:37:29.442Z,0.00
2023-10-06T03:38:29.561Z,0.00
2023-10-06T03:39:29.642Z,0.00
2023-10-06T03:40:29.657Z,0.00
2023-10-06T03:41:29.740Z,0.00
2023-10-06T03:42:29.807Z,0.00
2023-10-06T03:43:29.883Z,0.00
2023-10-06T03:44:29.986Z,0.00
2023-10-06T03:45:30.041Z,0.00
2023-10-06T03:46:30.148Z,0.00
2023-10-06T03:47:30.259Z,0.00
2023-10-06T03:48:30.582Z,0.00
2023-10-06T03:49:30.362Z,0.00
2023-10-06T03:50:30.494Z,0.00
2023-10-06T03:51:30.546Z,0.00
2023-10-06T03:52:30.618Z,0.00
2023-10-06T03:53:30.685Z,0.00
2023-10-06T03:54:30.768Z,0.00
2023-10-06T03:55:30.873Z,0.00
2023-10-06T03:56:31.402Z,0.00
2023-10-06T03:57:31.010Z,0.00
2023-10-06T03:58:31.083Z,0.00
2023-10-06T03:59:31.158Z,0.00
2023-10-06T04:00:31.249Z,0.00
2023-10-06T04:01:31.365Z,0.00
2023-10-06T04:02:31.477Z,0.00
2023-10-06T04:03:31.495Z,0.00
2023-10-06T04:04:31.553Z,0.00
2023-10-06T04:05:31.636Z,0.00
2023-10-06T04:06:31.714Z,0.00
2023-10-06T04:07:31.836Z,0.00
2023-10-06T04:08:31.868Z,0.00
2023-10-06T04:09:31.951Z,0.00
2023-10-06T04:10:32.017Z,0.00
2023-10-06T04:11:32.364Z,0.00
2023-10-06T04:12:32.169Z,0.00
2023-10-06T04:13:32.233Z,0.00
2023-10-06T04:14:32.286Z,0.00
2023-10-06T04:15:32.368Z,0.00
2023-10-06T04:16:32.710Z,0.00
2023-10-06T04:17:32.541Z,0.00
2023-10-06T04:18:32.687Z,0.00
2023-10-06T04:19:32.693Z,0.00
2023-10-06T04:20:32.772Z,0.00
2023-10-06T04:21:32.846Z,0.00
2023-10-06T04:22:32.958Z,0.00
2023-10-06T04:23:33.004Z,0.00
2023-10-06T04:24:33.047Z,0.00
2023-10-06T04:25:33.104Z,0.00
2023-10-06T04:26:33.187Z,0.00
2023-10-06T04:27:33.275Z,0.00
2023-10-06T04:28:33.322Z,0.00
2023-10-06T04:29:33.393Z,0.00
2023-10-06T04:30:33.448Z,0.00
2023-10-06T04:31:33.809Z,0.00
2023-10-06T04:32:33.648Z,0.00
2023-10-06T04:33:33.704Z,0.00
2023-10-06T04:34:33.764Z,0.00
2023-10-06T04:35:33.877Z,0.00
2023-10-06T04:36:33.920Z,0.00
2023-10-06T04:37:34.026Z,0.00
2023-10-06T04:38:34.088Z,0.00
2023-10-06T04:39:34.155Z,0.00
2023-10-06T04:40:34.231Z,0.00
2023-10-06T04:41:34.316Z,0.00
2023-10-06T04:42:34.431Z,0.00
2023-10-06T04:43:34.495Z,0.00
2023-10-06T04:44:34.549Z,0.00
2023-10-06T04:45:34.632Z,0.00
2023-10-06T04:46:34.734Z,0.00
2023-10-06T04:47:34.835Z,0.00
2023-10-06T04:48:34.902Z,0.00
2023-10-06T04:49:34.945Z,0.00
2023-10-06T04:50:35.015Z,0.00
2023-10-06T04:51:35.091Z,0.00
2023-10-06T04:52:35.161Z,0.00
2023-10-06T04:53:35.392Z,0.00
2023-10-06T04:54:35.310Z,0.00
2023-10-06T04:55:35.629Z,0.00
2023-10-06T04:56:35.439Z,0.00
2023-10-06T04:57:35.513Z,0.00
2023-10-06T04:58:35.620Z,0.00
2023-10-06T04:59:35.691Z,0.00
2023-10-06T05:00:35.738Z,0.00
2023-10-06T05:01:35.879Z,0.00
2023-10-06T05:02:36.202Z,0.00
2023-10-06T05:03:36.119Z,0.00
2023-10-06T05:04:36.066Z,0.00
2023-10-06T05:05:36.168Z,0.00
2023-10-06T05:06:36.249Z,0.00
2023-10-06T05:07:36.315Z,4.00
2023-10-06T05:08:36.431Z,4.00
2023-10-06T05:09:36.458Z,0.00
2023-10-06T05:10:36.540Z,4.00
2023-10-06T05:11:36.619Z,0.00
2023-10-06T05:12:36.922Z,4.00
2023-10-06T05:13:36.808Z,4.00
2023-10-06T05:14:36.854Z,8.00
2023-10-06T05:15:36.916Z,8.00
2023-10-06T05:16:37.340Z,4.00
2023-10-06T05:17:37.105Z,8.00
2023-10-06T05:18:37.221Z,8.00
2023-10-06T05:19:37.330Z,12.00
2023-10-06T05:20:37.375Z,16.00
2023-10-06T05:21:37.459Z,20.00
2023-10-06T05:22:37.490Z,24.00
2023-10-06T05:23:37.572Z,24.00
2023-10-06T05:24:37.693Z,32.00
2023-10-06T05:25:38.001Z,36.00
2023-10-06T05:26:37.841Z,44.00
2023-10-06T05:27:37.887Z,48.00
2023-10-06T05:28:37.982Z,60.00
2023-10-06T05:29:38.108Z,68.00
2023-10-06T05:30:38.159Z,80.00
2023-10-06T05:31:38.715Z,96.00
2023-10-06T05:32:38.455Z,104.00
2023-10-06T05:33:38.423Z,124.00
2023-10-06T05:34:38.505Z,140.00
2023-10-06T05:35:38.602Z,156.00
2023-10-06T05:36:38.700Z,172.00
2023-10-06T05:37:39.056Z,192.00
2023-10-06T05:38:38.843Z,208.00
2023-10-06T05:39:38.924Z,228.00
2023-10-06T05:40:39.839Z,256.00
2023-10-06T05:41:39.802Z,276.00
2023-10-06T05:42:39.149Z,304.00
2023-10-06T05:43:39.192Z,328.00
2023-10-06T05:44:39.294Z,360.00
2023-10-06T05:45:39.420Z,388.00
2023-10-06T05:46:40.353Z,420.00
2023-10-06T05:47:39.551Z,452.00
2023-10-06T05:48:40.025Z,488.00
2023-10-06T05:49:39.693Z,528.00
2023-10-06T05:50:39.743Z,564.00
2023-10-06T05:51:40.139Z,604.00
2023-10-06T05:52:39.996Z,640.00
2023-10-06T05:53:40.730Z,680.00
2023-10-06T05:54:40.102Z,720.00
2023-10-06T05:55:40.264Z,768.00
2023-10-06T05:56:40.749Z,812.00
2023-10-06T05:57:40.410Z,860.00
2023-10-06T05:58:40.737Z,908.00
2023-10-06T05:59:40.643Z,956.00
2023-10-06T06:00:40.583Z,1008.00
2023-10-06T06:01:40.792Z,1052.00
2023-10-06T06:02:40.875Z,1100.00
2023-10-06T06:03:40.838Z,1148.00
2023-10-06T06:04:40.866Z,1192.00
2023-10-06T06:05:40.911Z,1244.00
2023-10-06T06:06:41.084Z,1296.00
2023-10-06T06:07:41.097Z,1352.00
2023-10-06T06:08:41.130Z,1404.00
2023-10-06T06:09:41.230Z,1456.00
2023-10-06T06:10:41.601Z,1508.00
2023-10-06T06:11:41.562Z,1560.00
2023-10-06T06:12:41.458Z,1608.00
2023-10-06T06:13:41.585Z,1664.00
2023-10-06T06:14:41.644Z,1720.00
2023-10-06T06:15:41.718Z,1780.00
2023-10-06T06:16:42.185Z,1836.00
2023-10-06T06:17:41.874Z,1884.00
2023-10-06T06:18:41.955Z,1928.00
2023-10-06T06:19:42.097Z,1964.00
2023-10-06T06:20:42.126Z,2004.00
2023-10-06T06:21:42.221Z,2036.00
2023-10-06T06:22:42.268Z,2072.00
2023-10-06T06:23:42.334Z,2104.00
2023-10-06T06:24:42.432Z,2156.00
2023-10-06T06:25:42.523Z,2228.00
2023-10-06T06:26:42.620Z,2304.00
2023-10-06T06:27:42.659Z,2364.00
2023-10-06T06:28:42.789Z,2412.00
2023-10-06T06:29:42.808Z,2460.00
2023-10-06T06:30:43.201Z,2504.00
2023-10-06T06:31:43.036Z,2540.00
2023-10-06T06:32:43.052Z,2588.00
2023-10-06T06:33:43.418Z,2632.00
2023-10-06T06:34:43.332Z,2656.00
2023-10-06T06:35:43.451Z,2656.00
2023-10-06T06:36:43.389Z,2660.00
2023-10-06T06:37:43.497Z,2664.00
2023-10-06T06:38:43.530Z,2676.00
2023-10-06T06:39:43.610Z,2700.00
2023-10-06T06:40:43.712Z,2744.00
2023-10-06T06:41:43.735Z,2824.00
2023-10-06T06:42:43.819Z,2908.00
2023-10-06T06:43:43.918Z,3012.00
2023-10-06T06:44:43.994Z,3088.00
2023-10-06T06:45:44.256Z,3232.00
2023-10-06T06:46:44.476Z,3276.00
2023-10-06T06:47:44.278Z,3284.00
2023-10-06T06:48:44.275Z,3364.00
2023-10-06T06:49:44.665Z,3488.00
2023-10-06T06:50:44.478Z,3632.00
2023-10-06T06:51:44.532Z,3772.00
2023-10-06T06:52:44.667Z,3852.00
2023-10-06T06:53:44.713Z,3928.00
2023-10-06T06:54:44.886Z,3968.00
2023-10-06T06:55:44.915Z,4032.00
2023-10-06T06:56:44.928Z,4116.00
2023-10-06T06:57:45.062Z,4208.00
2023-10-06T06:58:45.096Z,4456.00
2023-10-06T06:59:45.299Z,4592.00
2023-10-06T07:00:45.314Z,4700.00
2023-10-06T07:01:45.477Z,4864.00
2023-10-06T07:02:45.518Z,5000.00
2023-10-06T07:03:45.633Z,5144.00
2023-10-06T07:04:45.662Z,5248.00
2023-10-06T07:05:45.721Z,5316.00
2023-10-06T07:06:45.770Z,5340.00
2023-10-06T07:07:46.847Z,5356.00
2023-10-06T07:08:45.921Z,5368.00
2023-10-06T07:09:46.011Z,5340.00
2023-10-06T07:10:46.125Z,5308.00
2023-10-06T07:11:46.150Z,5276.00
2023-10-06T07:12:46.279Z,5196.00
2023-10-06T07:13:46.404Z,5128.00
2023-10-06T07:14:46.388Z,5012.00
2023-10-06T07:15:46.518Z,4940.00
2023-10-06T07:16:46.720Z,4840.00
2023-10-06T07:17:52.899Z,4796.00
2023-10-06T07:18:46.769Z,4784.00
2023-10-06T07:19:46.864Z,4812.00
2023-10-06T07:20:46.890Z,4856.00
2023-10-06T07:21:46.981Z,4868.00
2023-10-06T07:22:47.089Z,4912.00
2023-10-06T07:23:47.186Z,4932.00
2023-10-06T07:24:47.297Z,4876.00
2023-10-06T07:25:47.605Z,4952.00
2023-10-06T07:26:47.418Z,5056.00
2023-10-06T07:27:47.512Z,5088.00
2023-10-06T07:28:48.537Z,5160.00
2023-10-06T07:29:47.956Z,5292.00
2023-10-06T07:30:47.754Z,5384.00
2023-10-06T07:31:47.965Z,5408.00
2023-10-06T07:32:48.181Z,5456.00
2023-10-06T07:33:48.011Z,5596.00
2023-10-06T07:34:48.007Z,5720.00
2023-10-06T07:35:48.100Z,5792.00
2023-10-06T07:36:48.237Z,5840.00
2023-10-06T07:37:48.618Z,5916.00
2023-10-06T07:38:48.377Z,6032.00
2023-10-06T07:39:47.445Z,6148.00
2023-10-06T07:40:48.597Z,6328.00
2023-10-06T07:41:48.684Z,6536.00
2023-10-06T07:42:48.729Z,6696.00
2023-10-06T07:43:48.825Z,6664.00
2023-10-06T07:44:48.878Z,6608.00
2023-10-06T07:45:49.322Z,6512.00
2023-10-06T07:46:49.120Z,6404.00
2023-10-06T07:47:49.310Z,6348.00
2023-10-06T07:48:49.267Z,6384.00
2023-10-06T07:49:49.631Z,6292.00
2023-10-06T07:50:49.389Z,6168.00
2023-10-06T07:51:49.527Z,6056.00
2023-10-06T07:52:49.679Z,5972.00
2023-10-06T07:53:49.852Z,5828.00
2023-10-06T07:54:49.688Z,5696.00
2023-10-06T07:55:48.816Z,5492.00
2023-10-06T07:56:49.875Z,5288.00
2023-10-06T07:57:49.974Z,5088.00
2023-10-06T07:58:50.196Z,4888.00
2023-10-06T07:59:50.117Z,4700.00
2023-10-06T08:00:50.238Z,4544.00
2023-10-06T08:01:50.324Z,4404.00
2023-10-06T08:02:50.398Z,4300.00
2023-10-06T08:03:50.525Z,4240.00
2023-10-06T08:04:50.860Z,4216.00
2023-10-06T08:05:50.606Z,4256.00
2023-10-06T08:06:50.693Z,4316.00
2023-10-06T08:07:50.781Z,4392.00
2023-10-06T08:08:50.918Z,4524.00
2023-10-06T08:09:50.964Z,4652.00
2023-10-06T08:10:51.100Z,4788.00
2023-10-06T08:11:51.126Z,4944.00
2023-10-06T08:12:51.218Z,5128.00
2023-10-06T08:13:51.396Z,5440.00
2023-10-06T08:14:51.504Z,5440.00
2023-10-06T08:15:51.534Z,5640.00
2023-10-06T08:16:51.579Z,5872.00
2023-10-06T08:17:51.726Z,5724.00
2023-10-06T08:18:51.755Z,5740.00
2023-10-06T08:19:51.904Z,5880.00
2023-10-06T08:20:51.983Z,6068.00
2023-10-06T08:21:52.038Z,6348.00
2023-10-06T08:22:52.088Z,6376.00
2023-10-06T08:23:52.150Z,6872.00
2023-10-06T08:24:52.292Z,7220.00
2023-10-06T08:26:00.265Z,7348.00
2023-10-06T08:26:52.708Z,7420.00
2023-10-06T08:27:52.556Z,7576.00
2023-10-06T08:28:52.564Z,7848.00
2023-10-06T08:29:52.589Z,7800.00
2023-10-06T08:30:52.747Z,7612.00
2023-10-06T08:31:53.025Z,7636.00
2023-10-06T08:32:52.959Z,7440.00
2023-10-06T08:33:52.971Z,7504.00
2023-10-06T08:34:53.319Z,7488.00
2023-10-06T08:35:53.147Z,7508.00
2023-10-06T08:36:53.182Z,7388.00
2023-10-06T08:37:53.332Z,7440.00
2023-10-06T08:38:53.339Z,7628.00
2023-10-06T08:39:53.440Z,7720.00
2023-10-06T08:40:53.697Z,7640.00
2023-10-06T08:41:53.609Z,8148.00
2023-10-06T08:42:53.652Z,8376.00
2023-10-06T08:43:53.801Z,8456.00
2023-10-06T08:44:53.851Z,8464.00
2023-10-06T08:45:54.027Z,8500.00
2023-10-06T08:46:54.325Z,8616.00
2023-10-06T08:48:54.246Z,8756.00
2023-10-06T08:49:54.345Z,8924.00
2023-10-06T08:50:54.391Z,9032.00
2023-10-06T08:51:54.509Z,9120.00
2023-10-06T08:52:54.574Z,9288.00
2023-10-06T08:53:54.620Z,9420.00
2023-10-06T08:54:54.769Z,9632.00
2023-10-06T08:55:54.778Z,9932.00
2023-10-06T08:56:54.873Z,10228.00
2023-10-06T08:57:54.967Z,10384.00
2023-10-06T08:58:55.075Z,10428.00
2023-10-06T08:59:55.187Z,10604.00
2023-10-06T09:00:55.283Z,11044.00
2023-10-06T09:01:55.313Z,11100.00
2023-10-06T09:02:55.876Z,11340.00
2023-10-06T09:03:55.502Z,11776.00
2023-10-06T09:04:55.631Z,12204.00
2023-10-06T09:05:55.675Z,12380.00
2023-10-06T09:06:55.682Z,13116.00
2023-10-06T09:07:55.755Z,13944.00
2023-10-06T09:08:55.817Z,16384.00
2023-10-06T09:09:55.980Z,24640.00
2023-10-06T09:10:56.054Z,31168.00
2023-10-06T09:11:56.370Z,28640.00
2023-10-06T09:12:56.158Z,28768.00
2023-10-06T09:13:56.249Z,29184.00
2023-10-06T09:14:56.347Z,28416.00
2023-10-06T09:15:56.397Z,25920.00
2023-10-06T09:16:56.506Z,29312.00
2023-10-06T09:17:56.577Z,30240.00
2023-10-06T09:18:56.660Z,25728.00
2023-10-06T09:19:56.788Z,27360.00
2023-10-06T09:20:57.183Z,28320.00
2023-10-06T09:21:56.897Z,30272.00
2023-10-06T09:22:57.069Z,31168.00
2023-10-06T09:23:57.072Z,29056.00
2023-10-06T09:24:57.170Z,28864.00
2023-10-06T09:25:57.343Z,36448.00
2023-10-06T09:26:57.435Z,31968.00
2023-10-06T09:27:57.430Z,24416.00
2023-10-06T09:28:57.916Z,25024.00
2023-10-06T09:29:57.630Z,29056.00
2023-10-06T09:30:57.771Z,29312.00
2023-10-06T09:31:57.840Z,25728.00
2023-10-06T09:32:58.249Z,21600.00
2023-10-06T09:33:57.966Z,27968.00
2023-10-06T09:34:58.111Z,29312.00
2023-10-06T09:35:58.134Z,35488.00
2023-10-06T09:36:58.230Z,40800.00
2023-10-06T09:37:59.358Z,45312.00
2023-10-06T09:38:58.784Z,42496.00
2023-10-06T09:39:58.459Z,35808.00
2023-10-06T09:40:58.620Z,32384.00
2023-10-06T09:41:58.630Z,38592.00
2023-10-06T09:42:58.775Z,30112.00
2023-10-06T09:43:58.848Z,32416.00
2023-10-06T09:44:58.890Z,37600.00
2023-10-06T09:45:58.974Z,35392.00
2023-10-06T09:46:59.423Z,40960.00
2023-10-06T09:47:59.262Z,42560.00
2023-10-06T09:48:59.274Z,45952.00
2023-10-06T09:49:59.429Z,50496.00
2023-10-06T09:50:59.421Z,53408.00
2023-10-06T09:51:59.501Z,50112.00
2023-10-06T09:52:59.670Z,46016.00
2023-10-06T09:53:59.683Z,44736.00
2023-10-06T09:54:59.802Z,46784.00
2023-10-06T09:56:01.262Z,43104.00
2023-10-06T09:56:59.941Z,51616.00
2023-10-06T09:58:00.058Z,56928.00
2023-10-06T09:59:00.130Z,59488.00
2023-10-06T10:00:00.232Z,57984.00
2023-10-06T10:01:00.373Z,52832.00
2023-10-06T10:02:02.375Z,53856.00
2023-10-06T10:03:00.878Z,62400.00
2023-10-06T10:04:00.653Z,65696.00
2023-10-06T10:05:00.734Z,69888.00
2023-10-06T10:06:00.642Z,68832.00
2023-10-06T10:07:01.010Z,61600.00
2023-10-06T10:08:02.475Z,63872.00
2023-10-06T10:09:00.970Z,63232.00
2023-10-06T10:10:01.028Z,65952.00
2023-10-06T10:11:01.149Z,38752.00
2023-10-06T10:12:01.567Z,16960.00
2023-10-06T10:13:01.273Z,29632.00
2023-10-06T10:14:04.208Z,12724.00
2023-10-06T10:15:02.095Z,12352.00
2023-10-06T10:16:01.499Z,21472.00
2023-10-06T10:17:02.132Z,54496.00
2023-10-06T10:18:01.703Z,57632.00
2023-10-06T10:19:01.768Z,54496.00
2023-10-06T10:20:04.334Z,44096.00
2023-10-06T10:21:01.972Z,26976.00
2023-10-06T10:22:02.066Z,44288.00
2023-10-06T10:23:02.122Z,60032.00
2023-10-06T10:24:26.905Z,64576.00
2023-10-06T10:26:03.420Z,60352.00
2023-10-06T10:27:02.475Z,63648.00
2023-10-06T10:28:02.499Z,61152.00
2023-10-06T10:29:01.651Z,58304.00
2023-10-06T10:30:02.988Z,48736.00
2023-10-06T10:31:02.892Z,59456.00
2023-10-06T10:32:04.290Z,60000.00
2023-10-06T10:33:02.977Z,57184.00
2023-10-06T10:34:11.410Z,59936.00
2023-10-06T10:35:03.117Z,65344.00
2023-10-06T10:36:03.132Z,67200.00
2023-10-06T10:37:03.181Z,58048.00
2023-10-06T10:38:05.833Z,71136.00
2023-10-06T10:39:03.446Z,67040.00
2023-10-06T10:40:03.427Z,64224.00
2023-10-06T10:41:03.495Z,65696.00
2023-10-06T10:42:03.616Z,24096.00
2023-10-06T10:43:03.766Z,55296.00
2023-10-06T10:44:18.580Z,46336.00
2023-10-06T10:45:03.860Z,46656.00
2023-10-06T10:46:03.916Z,39488.00
2023-10-06T10:47:04.100Z,37792.00
2023-10-06T10:48:04.428Z,40256.00
2023-10-06T10:49:04.153Z,67616.00
2023-10-06T10:50:04.604Z,45888.00
2023-10-06T10:51:04.348Z,44544.00
2023-10-06T10:52:04.485Z,36928.00
2023-10-06T10:53:04.523Z,48064.00
2023-10-06T10:54:04.895Z,58048.00
2023-10-06T10:55:04.682Z,69984.00
2023-10-06T10:56:05.645Z,72160.00
2023-10-06T10:57:04.917Z,62880.00
2023-10-06T10:58:04.948Z,61984.00
2023-10-06T10:59:05.069Z,66496.00
2023-10-06T11:00:05.109Z,51904.00
2023-10-06T11:01:05.490Z,65632.00
2023-10-06T11:02:05.385Z,60832.00
2023-10-06T11:03:05.950Z,38368.00
2023-10-06T11:04:05.438Z,59488.00
2023-10-06T11:05:05.494Z,53408.00
2023-10-06T11:06:05.597Z,57184.00
2023-10-06T11:07:05.639Z,67008.00
2023-10-06T11:08:05.738Z,85792.00
2023-10-06T11:09:05.809Z,68096.00
2023-10-06T11:10:05.891Z,55968.00
2023-10-06T11:11:06.069Z,60832.00
2023-10-06T11:12:23.065Z,67424.00
2023-10-06T11:13:06.133Z,63296.00
2023-10-06T11:14:06.992Z,64448.00
2023-10-06T11:15:06.296Z,64608.00
2023-10-06T11:16:06.420Z,58240.00
2023-10-06T11:17:06.540Z,40512.00
2023-10-06T11:18:07.129Z,44864.00
2023-10-06T11:19:06.652Z,83072.00
2023-10-06T11:20:07.038Z,39616.00
2023-10-06T11:21:07.304Z,35584.00
2023-10-06T11:22:06.939Z,39584.00
2023-10-06T11:23:07.020Z,37280.00
2023-10-06T11:24:07.063Z,31392.00
2023-10-06T11:25:07.164Z,27808.00
2023-10-06T11:26:07.327Z,32544.00
2023-10-06T11:27:07.352Z,40928.00
2023-10-06T11:28:07.418Z,69344.00
2023-10-06T11:29:07.522Z,81216.00
2023-10-06T11:30:07.590Z,77600.00
2023-10-06T11:31:07.731Z,72992.00
2023-10-06T11:32:07.808Z,76832.00
2023-10-06T11:33:08.020Z,79904.00
2023-10-06T11:34:08.247Z,82720.00
2023-10-06T11:35:08.163Z,87328.00
2023-10-06T11:36:08.206Z,77664.00
2023-10-06T11:37:08.240Z,73056.00
2023-10-06T11:38:08.329Z,75552.00
2023-10-06T11:39:08.355Z,82944.00
2023-10-06T11:40:08.462Z,80384.00
2023-10-06T11:41:08.918Z,77888.00
2023-10-06T11:42:08.665Z,80448.00
2023-10-06T11:43:09.019Z,79136.00
2023-10-06T11:44:08.963Z,80480.00
2023-10-06T11:45:08.865Z,85120.00
2023-10-06T11:46:09.155Z,84832.00
2023-10-06T11:47:09.436Z,72448.00
2023-10-06T11:48:09.258Z,72512.00
2023-10-06T11:49:09.202Z,70400.00
2023-10-06T11:50:10.252Z,94656.00
2023-10-06T11:51:09.656Z,93856.00
2023-10-06T11:52:09.648Z,78240.00
2023-10-06T11:53:09.475Z,61408.00
2023-10-06T11:54:09.726Z,87296.00
2023-10-06T11:55:09.818Z,67072.00
2023-10-06T11:56:09.901Z,83904.00
2023-10-06T11:57:10.088Z,65536.00
2023-10-06T11:58:09.899Z,37504.00
2023-10-06T11:59:10.062Z,55712.00
2023-10-06T12:00:10.033Z,73664.00
2023-10-06T12:01:10.096Z,88736.00
2023-10-06T12:02:10.731Z,67680.00
2023-10-06T12:03:10.315Z,74144.00
2023-10-06T12:04:10.876Z,85888.00
2023-10-06T12:05:10.476Z,99808.00
2023-10-06T12:06:10.515Z,92448.00
2023-10-06T12:07:10.593Z,52480.00
2023-10-06T12:08:10.675Z,36896.00
2023-10-06T12:09:10.723Z,48096.00
2023-10-06T12:10:10.801Z,56992.00
2023-10-06T12:11:10.917Z,28480.00
2023-10-06T12:12:11.009Z,29152.00
2023-10-06T12:13:11.074Z,26240.00
2023-10-06T12:14:11.436Z,22496.00
2023-10-06T12:15:11.185Z,28224.00
2023-10-06T12:16:11.331Z,44448.00
2023-10-06T12:17:11.539Z,33056.00
2023-10-06T12:18:11.634Z,23936.00
2023-10-06T12:19:11.576Z,23168.00
2023-10-06T12:20:11.682Z,21952.00
2023-10-06T12:21:12.106Z,20544.00
2023-10-06T12:22:14.773Z,21440.00
2023-10-06T12:23:12.257Z,21920.00
2023-10-06T12:24:12.254Z,24768.00
2023-10-06T12:25:12.068Z,31744.00
2023-10-06T12:26:12.251Z,46240.00
2023-10-06T12:27:12.228Z,95840.00
2023-10-06T12:28:12.302Z,56032.00
2023-10-06T12:29:12.422Z,48704.00
2023-10-06T12:30:12.459Z,44224.00
2023-10-06T12:31:12.805Z,81600.00
2023-10-06T12:32:13.016Z,73568.00
2023-10-06T12:33:12.798Z,55168.00
2023-10-06T12:34:13.088Z,46304.00